SPHI/CIX METAR and TAF weather

Enter ICAO airport designator
Station Type Date Time Source
SPHI METAR 2021/03/06 00:00 UTC NOAA

SPHI 060000Z 18013KT CAVOK 25/20 Q1009 RMK BIRD HAZARD RWY 19/01 PP000


Station Type Date Time Source
SPHI Decoded METAR 2021/03/06 00:00 UTC NOAA

Chiclayo, Peru (SPHI) 06-47S 079-50W 34M
Mar 05, 2021 - 07:00 PM EST / 2021.03.06 0000 UTC
Wind: from the S (180 degrees) at 15 MPH (13 KT):0
Visibility: greater than 7 mile(s):0
Temperature: 77 F (25 C)
Dew Point: 68 F (20 C)
Relative Humidity: 73%
Pressure (altimeter): 29.80 in. Hg (1009 hPa)
ob: SPHI 060000Z 18013KT CAVOK 25/20 Q1009 RMK BIRD HAZARD RWY 19/01 PP000
cycle: 0

Station Type Date Time Source
SPHI TAF 2021/03/06 00:00 UTC NOAA

SPHI 052300Z 0600/0624 19014KT 9999 SCT050 SCT100 TX30/0619Z TN22/0611Z
BECMG 0605/0607 18004KT
BECMG 0617/0619 20014KT

Example: see airport list